createdAt,value
2023-03-13T00:01:47.492Z,60.17
2023-03-13T00:04:15.702Z,60.36
2023-03-13T00:06:44.423Z,60.44
2023-03-13T00:09:15.340Z,60.46
2023-03-13T00:11:45.862Z,60.48
2023-03-13T00:14:14.129Z,60.24
2023-03-13T00:16:42.564Z,60.32
2023-03-13T00:19:11.657Z,60.40
2023-03-13T00:21:41.476Z,60.60
2023-03-13T00:24:12.356Z,60.73
2023-03-13T00:26:40.713Z,60.94
2023-03-13T00:29:08.921Z,61.00
2023-03-13T00:31:37.812Z,61.26
2023-03-13T00:34:06.137Z,61.37
2023-03-13T00:36:35.982Z,61.45
2023-03-13T00:39:06.959Z,61.33
2023-03-13T00:41:38.210Z,61.35
2023-03-13T00:44:07.256Z,61.63
2023-03-13T00:46:35.936Z,61.77
2023-03-13T00:49:05.043Z,61.82
2023-03-13T00:51:35.702Z,62.00
2023-03-13T00:54:05.062Z,62.27
2023-03-13T00:56:34.642Z,62.37
2023-03-13T00:59:03.446Z,62.37
2023-03-13T01:01:36.367Z,62.48
2023-03-13T01:04:07.691Z,62.70
2023-03-13T01:06:38.627Z,62.85
2023-03-13T01:09:08.998Z,63.13
2023-03-13T01:11:40.795Z,63.13
2023-03-13T01:14:13.335Z,63.37
2023-03-13T01:16:42.616Z,63.53
2023-03-13T01:19:13.947Z,63.53
2023-03-13T01:21:44.161Z,63.81
2023-03-13T01:24:12.904Z,64.12
2023-03-13T01:26:41.193Z,64.29
2023-03-13T01:29:09.412Z,64.56
2023-03-13T01:31:37.828Z,64.74
2023-03-13T01:34:10.670Z,64.83
2023-03-13T01:36:39.020Z,64.84
2023-03-13T01:39:07.316Z,65.24
2023-03-13T01:41:35.547Z,65.73
2023-03-13T01:44:04.229Z,66.30
2023-03-13T01:46:37.757Z,66.82
2023-03-13T01:49:33.499Z,67.08
2023-03-13T01:52:15.787Z,67.45
2023-03-13T01:55:05.687Z,68.09
2023-03-13T01:57:37.592Z,68.44
2023-03-13T02:00:12.554Z,69.07
2023-03-13T02:02:48.754Z,69.58
2023-03-13T02:05:21.282Z,70.08
2023-03-13T02:07:55.608Z,70.79
2023-03-13T02:10:26.860Z,70.93
2023-03-13T02:13:01.113Z,71.28
2023-03-13T02:15:31.090Z,71.45
2023-03-13T02:18:00.225Z,71.69
2023-03-13T02:20:28.727Z,71.86
2023-03-13T02:23:06.620Z,72.15
2023-03-13T02:25:46.061Z,72.43
2023-03-13T02:28:25.193Z,72.63
2023-03-13T02:30:57.013Z,72.99
2023-03-13T02:33:31.718Z,73.26
2023-03-13T02:36:02.790Z,73.59
2023-03-13T02:38:35.084Z,73.75
2023-03-13T02:41:05.164Z,73.92
2023-03-13T02:43:36.472Z,74.10
2023-03-13T02:46:10.398Z,74.01
2023-03-13T02:48:51.365Z,74.06
2023-03-13T02:51:45.433Z,74.35
2023-03-13T02:54:20.447Z,74.65
2023-03-13T02:56:50.963Z,74.82
2023-03-13T02:59:19.410Z,74.88
2023-03-13T03:01:47.851Z,74.98
2023-03-13T03:04:16.164Z,75.17
2023-03-13T03:06:44.452Z,75.30
2023-03-13T03:09:13.125Z,75.35
2023-03-13T03:11:41.357Z,75.33
2023-03-13T03:14:13.166Z,75.55
2023-03-13T03:16:44.539Z,75.80
2023-03-13T03:19:12.957Z,75.80
2023-03-13T03:21:41.276Z,76.03
2023-03-13T03:24:09.446Z,76.10
2023-03-13T03:26:38.031Z,76.10
2023-03-13T03:29:11.253Z,76.22
2023-03-13T03:31:40.518Z,76.38
2023-03-13T03:34:08.811Z,76.54
2023-03-13T03:36:37.152Z,76.56
2023-03-13T03:39:05.478Z,76.68
2023-03-13T03:41:33.886Z,76.79
2023-03-13T03:44:02.200Z,77.00
2023-03-13T03:46:37.608Z,77.35
2023-03-13T03:49:05.868Z,77.47
2023-03-13T03:51:34.228Z,77.59
2023-03-13T03:54:02.689Z,77.44
2023-03-13T03:56:32.030Z,77.79
2023-03-13T03:59:01.036Z,77.93
2023-03-13T04:01:43.223Z,77.97
2023-03-13T04:04:11.521Z,77.93
2023-03-13T04:06:41.516Z,78.11
2023-03-13T04:09:10.749Z,78.17
2023-03-13T04:11:39.975Z,78.16
2023-03-13T04:14:10.125Z,78.13
2023-03-13T04:16:38.590Z,78.30
2023-03-13T04:19:07.504Z,78.37
2023-03-13T04:21:37.036Z,78.45
2023-03-13T04:24:10.211Z,78.52
2023-03-13T04:26:40.807Z,78.50
2023-03-13T04:29:09.189Z,78.80
2023-03-13T04:31:59.982Z,79.08
2023-03-13T04:35:01.370Z,79.20
2023-03-13T04:38:02.895Z,79.20
2023-03-13T04:40:50.229Z,79.27
2023-03-13T04:43:38.826Z,79.36
2023-03-13T04:46:32.978Z,79.34
2023-03-13T04:49:14.710Z,79.39
2023-03-13T04:51:59.002Z,79.65
2023-03-13T04:54:27.393Z,79.86
2023-03-13T04:57:10.423Z,80.20
2023-03-13T04:59:59.168Z,80.31
2023-03-13T05:02:56.499Z,80.36
2023-03-13T05:05:50.435Z,80.32
2023-03-13T05:08:48.265Z,80.36
2023-03-13T05:11:40.409Z,80.53
2023-03-13T05:14:31.641Z,80.64
2023-03-13T05:17:18.899Z,80.87
2023-03-13T05:20:11.443Z,80.77
2023-03-13T05:22:50.091Z,80.69
2023-03-13T05:25:30.015Z,80.73
2023-03-13T05:28:13.197Z,80.83
2023-03-13T05:30:50.567Z,80.96
2023-03-13T05:33:40.071Z,81.12
2023-03-13T05:36:28.583Z,81.38
2023-03-13T05:39:18.544Z,81.46
2023-03-13T05:41:49.804Z,81.47
2023-03-13T05:44:20.633Z,81.55
2023-03-13T05:47:04.291Z,81.55
2023-03-13T05:49:44.840Z,81.48
2023-03-13T05:52:18.833Z,81.44
2023-03-13T05:55:10.067Z,81.45
2023-03-13T05:57:56.036Z,81.43
2023-03-13T06:00:35.684Z,81.42
2023-03-13T06:03:35.575Z,81.48
2023-03-13T06:06:05.698Z,81.51
2023-03-13T06:08:38.845Z,81.31
2023-03-13T06:11:07.120Z,81.29
2023-03-13T06:13:35.620Z,81.13
2023-03-13T06:16:11.476Z,81.15
2023-03-13T06:18:46.165Z,81.18
2023-03-13T06:21:14.543Z,81.21
2023-03-13T06:23:42.759Z,81.08
2023-03-13T06:26:11.415Z,81.18
2023-03-13T06:28:39.671Z,81.26
2023-03-13T06:31:08.325Z,81.37
2023-03-13T06:33:37.311Z,81.41
2023-03-13T06:36:06.321Z,81.41
2023-03-13T06:38:34.715Z,81.43
2023-03-13T06:41:02.860Z,81.33
2023-03-13T06:43:31.285Z,81.21
2023-03-13T06:46:04.314Z,81.06
2023-03-13T06:48:32.970Z,80.93
2023-03-13T06:51:01.152Z,80.90
2023-03-13T06:53:29.436Z,80.78
2023-03-13T06:56:00.911Z,80.50
2023-03-13T06:58:32.803Z,80.37
2023-03-13T07:01:13.017Z,80.30
2023-03-13T07:03:41.995Z,80.40
2023-03-13T07:06:12.624Z,79.99
2023-03-13T07:08:41.143Z,80.20
2023-03-13T07:11:11.737Z,80.11
2023-03-13T07:13:40.107Z,80.02
2023-03-13T07:16:13.523Z,79.56
2023-03-13T07:18:42.261Z,79.11
2023-03-13T07:21:11.575Z,79.01
2023-03-13T07:23:40.242Z,78.92
2023-03-13T07:26:13.010Z,78.96
2023-03-13T07:28:41.936Z,78.47
2023-03-13T07:31:19.288Z,78.09
2023-03-13T07:33:48.055Z,77.56
2023-03-13T07:36:17.805Z,76.67
2023-03-13T07:38:49.815Z,75.58
2023-03-13T07:41:18.722Z,75.10
2023-03-13T07:43:47.540Z,74.82
2023-03-13T07:46:21.730Z,74.59
2023-03-13T07:48:50.476Z,75.04
2023-03-13T07:51:30.472Z,74.07
2023-03-13T07:54:05.575Z,72.71
2023-03-13T07:56:33.773Z,70.85
2023-03-13T07:59:01.998Z,71.18
2023-03-13T08:01:31.419Z,70.62
2023-03-13T08:04:02.633Z,71.24
2023-03-13T08:06:35.676Z,70.40
2023-03-13T08:09:05.717Z,68.39
2023-03-13T08:11:34.409Z,67.90
2023-03-13T08:14:02.892Z,67.78
2023-03-13T08:16:34.677Z,67.13
2023-03-13T08:19:05.999Z,67.89
2023-03-13T08:21:36.690Z,67.82
2023-03-13T08:24:07.771Z,67.80
2023-03-13T08:26:38.847Z,68.23
2023-03-13T08:29:10.482Z,68.40
2023-03-13T08:31:54.402Z,67.87
2023-03-13T08:34:23.373Z,68.24
2023-03-13T08:36:53.020Z,68.55
2023-03-13T08:39:21.555Z,67.62
2023-03-13T08:41:49.946Z,67.12
2023-03-13T08:44:20.459Z,67.16
2023-03-13T08:46:49.566Z,66.87
2023-03-13T08:49:17.959Z,67.28
2023-03-13T08:51:46.360Z,66.24
2023-03-13T08:54:14.817Z,66.12
2023-03-13T08:56:44.114Z,65.48
2023-03-13T08:59:12.832Z,64.16
2023-03-13T09:01:42.118Z,63.20
2023-03-13T09:04:10.415Z,62.92
2023-03-13T09:06:38.744Z,61.55
2023-03-13T09:09:08.191Z,61.37
2023-03-13T09:11:39.336Z,61.59
2023-03-13T09:14:08.540Z,61.15
2023-03-13T09:16:37.660Z,60.11
2023-03-13T09:19:06.832Z,60.70
2023-03-13T09:21:36.146Z,61.34
2023-03-13T09:24:04.932Z,60.50
2023-03-13T09:26:33.371Z,60.91
2023-03-13T09:29:01.743Z,59.54
2023-03-13T09:31:31.602Z,59.33
2023-03-13T09:34:00.797Z,59.71
2023-03-13T09:36:29.073Z,58.73
2023-03-13T09:38:59.106Z,59.15
2023-03-13T09:41:32.863Z,58.39
2023-03-13T09:44:11.634Z,57.42
2023-03-13T09:46:53.485Z,56.61
2023-03-13T09:49:41.275Z,56.03
2023-03-13T09:52:34.331Z,56.32
2023-03-13T09:55:20.708Z,56.26
2023-03-13T09:58:00.036Z,56.01
2023-03-13T10:00:44.069Z,54.81
2023-03-13T10:03:21.088Z,54.22
2023-03-13T10:05:53.518Z,54.69
2023-03-13T10:08:25.819Z,54.92
2023-03-13T10:11:03.892Z,54.87
2023-03-13T10:13:41.640Z,54.17
2023-03-13T10:16:18.989Z,53.73
2023-03-13T10:18:55.710Z,53.62
2023-03-13T10:21:34.499Z,53.65
2023-03-13T10:24:18.894Z,53.89
2023-03-13T10:26:55.749Z,53.81
2023-03-13T10:29:44.221Z,53.46
2023-03-13T10:32:26.461Z,52.74
2023-03-13T10:35:10.006Z,53.37
2023-03-13T10:37:51.509Z,52.89
2023-03-13T10:40:25.682Z,53.62
2023-03-13T10:43:13.117Z,54.09
2023-03-13T10:45:42.187Z,55.07
2023-03-13T10:48:20.414Z,54.68
2023-03-13T10:54:12.694Z,52.28
2023-03-13T10:58:17.278Z,52.39
2023-03-13T11:02:10.652Z,51.03
2023-03-13T11:05:52.455Z,51.91
2023-03-13T11:09:40.039Z,48.55
2023-03-13T11:13:09.714Z,47.59
2023-03-13T11:16:45.016Z,45.40
2023-03-13T11:23:34.310Z,43.98
2023-03-13T11:34:54.100Z,44.77
2023-03-13T11:37:34.172Z,45.32
2023-03-13T11:40:46.410Z,44.66
2023-03-13T11:43:51.491Z,43.28
2023-03-13T11:46:28.047Z,44.36
2023-03-13T11:49:33.864Z,44.15
2023-03-13T11:52:49.370Z,42.40
2023-03-13T11:59:06.800Z,42.96
2023-03-13T12:02:16.704Z,43.94
2023-03-13T12:05:32.049Z,43.18
2023-03-13T12:08:32.903Z,42.80
2023-03-13T12:11:49.104Z,43.28
2023-03-13T12:14:32.601Z,43.74
2023-03-13T12:17:12.026Z,43.68
2023-03-13T12:19:53.166Z,43.82
2023-03-13T12:22:52.254Z,44.38
2023-03-13T12:25:34.896Z,45.41
2023-03-13T12:28:46.220Z,45.22
2023-03-13T12:31:32.438Z,45.45
2023-03-13T12:34:44.804Z,45.99
2023-03-13T12:38:04.053Z,45.55
2023-03-13T12:41:05.065Z,45.11
2023-03-13T12:43:40.582Z,46.29
2023-03-13T12:46:29.021Z,46.29
2023-03-13T12:49:36.047Z,45.60
2023-03-13T12:52:28.648Z,45.53
2023-03-13T12:55:19.337Z,45.97
2023-03-13T12:58:15.273Z,46.24
2023-03-13T13:00:49.251Z,46.48
2023-03-13T13:03:25.371Z,46.56
2023-03-13T13:06:15.074Z,45.98
2023-03-13T13:08:55.859Z,46.72
2023-03-13T13:11:49.193Z,46.57
2023-03-13T13:14:26.360Z,45.98
2023-03-13T13:17:21.615Z,46.43
2023-03-13T13:19:53.590Z,46.55
2023-03-13T13:22:41.875Z,45.84
2023-03-13T13:25:17.484Z,46.43
2023-03-13T13:27:59.820Z,46.21
2023-03-13T13:31:15.394Z,46.13
2023-03-13T13:33:50.675Z,45.50
2023-03-13T13:40:08.874Z,44.10
2023-03-13T13:43:36.352Z,45.14
2023-03-13T13:46:47.592Z,45.59
2023-03-13T13:49:54.174Z,45.79
2023-03-13T13:52:50.072Z,46.18
2023-03-13T13:58:44.592Z,46.16
2023-03-13T14:02:10.986Z,46.06
2023-03-13T14:06:04.534Z,46.05
2023-03-13T14:09:03.350Z,46.23
2023-03-13T14:11:57.929Z,46.50
2023-03-13T14:14:39.883Z,46.00
2023-03-13T14:17:22.144Z,45.87
2023-03-13T14:20:08.248Z,45.74
2023-03-13T14:24:00.561Z,46.18
2023-03-13T14:27:21.791Z,46.30
2023-03-13T14:30:09.546Z,46.72
2023-03-13T14:32:39.427Z,46.27
2023-03-13T14:35:23.059Z,46.66
2023-03-13T14:38:07.488Z,47.19
2023-03-13T14:40:39.875Z,47.62
2023-03-13T14:44:24.689Z,49.01
2023-03-13T14:47:50.501Z,50.92
2023-03-13T14:54:10.287Z,53.73
2023-03-13T14:57:38.457Z,54.63
2023-03-13T15:05:17.412Z,55.90
2023-03-13T15:08:37.453Z,56.23
2023-03-13T15:11:39.621Z,56.61
2023-03-13T15:14:38.525Z,56.78
2023-03-13T15:18:33.548Z,56.95
2023-03-13T15:26:02.479Z,56.50
2023-03-13T15:33:32.287Z,56.63
2023-03-13T15:36:56.777Z,56.90
2023-03-13T15:39:48.238Z,57.46
2023-03-13T15:42:47.657Z,58.08
2023-03-13T15:46:06.794Z,59.09
2023-03-13T15:49:02.914Z,59.76
2023-03-13T15:52:19.276Z,60.47
2023-03-13T15:55:21.004Z,61.26
2023-03-13T15:58:31.517Z,62.36
2023-03-13T16:01:56.587Z,62.84
2023-03-13T16:04:47.222Z,63.44
2023-03-13T16:07:52.724Z,63.97
2023-03-13T16:11:16.762Z,64.55
2023-03-13T16:14:28.078Z,64.75
2023-03-13T16:17:31.254Z,64.95
2023-03-13T16:21:00.034Z,65.37
2023-03-13T16:24:07.836Z,65.75
2023-03-13T16:27:24.645Z,65.99
2023-03-13T16:30:40.348Z,66.61
2023-03-13T16:33:28.493Z,66.73
2023-03-13T16:36:42.939Z,66.75
2023-03-13T16:39:32.396Z,66.96
2023-03-13T16:42:24.494Z,67.11
2023-03-13T16:44:55.361Z,67.20
2023-03-13T16:47:32.157Z,67.11
2023-03-13T16:50:31.339Z,67.21
2023-03-13T16:53:35.376Z,67.20
2023-03-13T16:57:34.619Z,67.11
2023-03-13T17:00:35.011Z,66.68
2023-03-13T17:03:10.294Z,66.37
2023-03-13T17:05:38.860Z,66.14
2023-03-13T17:08:14.402Z,65.90
2023-03-13T17:10:44.049Z,65.83
2023-03-13T17:13:21.015Z,65.56
2023-03-13T17:16:14.489Z,65.61
2023-03-13T17:18:54.033Z,65.32
2023-03-13T17:21:35.596Z,65.07
2023-03-13T17:24:11.469Z,64.83
2023-03-13T17:26:40.277Z,64.62
2023-03-13T17:29:16.250Z,64.60
2023-03-13T17:31:45.188Z,64.31
2023-03-13T17:34:17.081Z,64.19
2023-03-13T17:36:51.282Z,63.78
2023-03-13T17:39:21.452Z,63.56
2023-03-13T17:41:53.365Z,63.60
2023-03-13T17:44:26.460Z,63.28
2023-03-13T17:46:57.455Z,63.20
2023-03-13T17:49:25.880Z,63.10
2023-03-13T17:51:54.185Z,62.78
2023-03-13T17:54:22.559Z,62.73
2023-03-13T17:56:50.890Z,62.42
2023-03-13T17:59:19.313Z,62.26
2023-03-13T18:01:47.759Z,62.22
2023-03-13T18:04:16.114Z,62.17
2023-03-13T18:06:47.014Z,62.24
2023-03-13T18:09:19.993Z,62.61
2023-03-13T18:11:49.547Z,63.33
2023-03-13T18:14:18.121Z,64.33
2023-03-13T18:16:48.837Z,65.16
2023-03-13T18:19:23.433Z,66.15
2023-03-13T18:21:54.653Z,66.85
2023-03-13T18:24:23.477Z,67.36
2023-03-13T18:26:51.797Z,67.82
2023-03-13T18:29:26.834Z,68.13
2023-03-13T18:31:59.130Z,68.60
2023-03-13T18:34:30.464Z,69.05
2023-03-13T18:37:05.363Z,69.53
2023-03-13T18:39:33.814Z,69.44
2023-03-13T18:42:02.321Z,69.70
2023-03-13T18:44:40.159Z,69.97
2023-03-13T18:47:12.564Z,70.24
2023-03-13T18:49:44.116Z,70.41
2023-03-13T18:52:17.433Z,70.47
2023-03-13T18:54:52.007Z,70.46
2023-03-13T18:57:23.208Z,70.65
2023-03-13T18:59:51.606Z,70.79
2023-03-13T19:02:20.348Z,70.93
2023-03-13T19:04:48.868Z,70.97
2023-03-13T19:07:28.559Z,71.08
2023-03-13T19:10:01.778Z,71.16
2023-03-13T19:12:30.161Z,71.16
2023-03-13T19:14:58.593Z,71.23
2023-03-13T19:17:29.697Z,71.18
2023-03-13T19:19:58.109Z,71.08
2023-03-13T19:22:35.495Z,70.95
2023-03-13T19:25:03.985Z,70.89
2023-03-13T19:27:32.344Z,70.58
2023-03-13T19:30:00.651Z,70.37
2023-03-13T19:32:30.972Z,70.43
2023-03-13T19:34:59.245Z,70.31
2023-03-13T19:37:28.018Z,70.19
2023-03-13T19:40:01.710Z,70.06
2023-03-13T19:42:34.288Z,69.87
2023-03-13T19:45:15.713Z,69.78
2023-03-13T19:47:45.753Z,69.78
2023-03-13T19:50:23.148Z,69.66
2023-03-13T19:52:51.446Z,69.36
2023-03-13T19:55:20.240Z,69.16
2023-03-13T19:57:54.093Z,68.92
2023-03-13T20:00:25.313Z,68.69
2023-03-13T20:02:55.356Z,68.48
2023-03-13T20:05:27.092Z,68.25
2023-03-13T20:08:00.414Z,67.81
2023-03-13T20:10:30.071Z,67.66
2023-03-13T20:13:07.738Z,67.31
2023-03-13T20:15:38.905Z,67.00
2023-03-13T20:18:07.221Z,66.76
2023-03-13T20:20:35.721Z,66.74
2023-03-13T20:23:06.143Z,66.29
2023-03-13T20:25:34.634Z,66.21
2023-03-13T20:28:02.990Z,65.98
2023-03-13T20:30:31.275Z,65.89
2023-03-13T20:33:00.187Z,65.87
2023-03-13T20:35:29.100Z,65.70
2023-03-13T20:38:00.957Z,65.28
2023-03-13T20:40:34.429Z,65.39
2023-03-13T20:43:03.328Z,65.34
2023-03-13T20:45:32.066Z,65.23
2023-03-13T20:48:00.715Z,64.97
2023-03-13T20:50:29.327Z,64.91
2023-03-13T20:53:00.845Z,64.69
2023-03-13T20:55:32.073Z,64.45
2023-03-13T20:58:03.563Z,64.37
2023-03-13T21:00:32.757Z,64.07
2023-03-13T21:03:01.358Z,64.10
2023-03-13T21:05:29.840Z,64.12
2023-03-13T21:07:58.209Z,63.86
2023-03-13T21:10:26.610Z,63.70
2023-03-13T21:12:54.943Z,63.54
2023-03-13T21:15:23.362Z,63.44
2023-03-13T21:17:53.838Z,63.33
2023-03-13T21:20:23.209Z,63.45
2023-03-13T21:22:51.639Z,63.46
2023-03-13T21:25:20.271Z,63.31
2023-03-13T21:27:48.690Z,63.33
2023-03-13T21:30:19.955Z,63.20
2023-03-13T21:32:49.264Z,63.26
2023-03-13T21:35:17.782Z,62.91
2023-03-13T21:37:46.183Z,62.91
2023-03-13T21:40:14.553Z,62.87
2023-03-13T21:42:42.896Z,62.79
2023-03-13T21:45:11.703Z,62.86
2023-03-13T21:47:40.548Z,62.80
2023-03-13T21:50:11.212Z,62.72
2023-03-13T21:52:41.371Z,62.45
2023-03-13T21:55:12.778Z,62.59
2023-03-13T21:57:41.148Z,62.62
2023-03-13T22:00:10.281Z,62.42
2023-03-13T22:02:38.512Z,62.32
2023-03-13T22:05:07.862Z,62.19
2023-03-13T22:07:36.805Z,62.21
2023-03-13T22:10:05.454Z,62.20
2023-03-13T22:12:33.707Z,62.12
2023-03-13T22:15:02.220Z,62.03
2023-03-13T22:17:30.523Z,62.16
2023-03-13T22:19:58.804Z,62.18
2023-03-13T22:22:27.210Z,62.25
2023-03-13T22:24:55.454Z,62.51
2023-03-13T22:27:24.286Z,62.59
2023-03-13T22:29:52.913Z,62.65
2023-03-13T22:32:21.207Z,62.73
2023-03-13T22:34:49.603Z,62.71
2023-03-13T22:37:19.819Z,62.64
2023-03-13T22:39:50.033Z,62.69
2023-03-13T22:42:18.331Z,62.74
2023-03-13T22:44:46.713Z,62.76
2023-03-13T22:47:14.919Z,62.54
2023-03-13T22:49:43.361Z,62.45
2023-03-13T22:52:11.696Z,62.04
2023-03-13T22:54:39.872Z,61.92
2023-03-13T22:57:08.169Z,61.75
2023-03-13T22:59:36.437Z,61.70
2023-03-13T23:02:04.924Z,61.53
2023-03-13T23:04:33.278Z,61.36
2023-03-13T23:07:01.495Z,61.43
2023-03-13T23:09:29.723Z,61.38
2023-03-13T23:11:58.151Z,61.33
2023-03-13T23:14:29.113Z,61.36
2023-03-13T23:16:58.059Z,61.35
2023-03-13T23:19:26.532Z,61.50
2023-03-13T23:21:54.751Z,61.72
2023-03-13T23:24:22.953Z,62.05
2023-03-13T23:26:51.257Z,62.26
2023-03-13T23:29:19.458Z,62.26
2023-03-13T23:31:47.625Z,62.28
2023-03-13T23:34:21.875Z,62.43
2023-03-13T23:36:50.189Z,62.52
2023-03-13T23:39:18.645Z,62.64
2023-03-13T23:41:46.864Z,62.80
2023-03-13T23:44:16.019Z,63.08
2023-03-13T23:46:46.164Z,63.20
2023-03-13T23:49:15.585Z,63.71
2023-03-13T23:51:43.714Z,64.06
2023-03-13T23:54:12.050Z,64.24
2023-03-13T23:56:40.206Z,64.43
2023-03-13T23:59:08.397Z,64.65
